Time;durP1;ratioP1;P1;durP2;ratioP2;P2;SDS_P1;SDS_P2;PMS_P1;PMS_P2;Temp;Humidity;BMP_temperature;BMP_pressure;BME280_temperature;BME280_humidity;BME280_pressure;Samples;Min_cycle;Max_cycle;Signal;HPM_P1;HPM_P2
2024/03/17 00:01:52;;;;;;;10.10;6.20;;;;;;;6.08;81.60;99998.02;216846;1260;141165;-78
2024/03/17 00:06:55;;;;;;;6.60;3.90;;;;;;;5.92;81.75;100006.44;217602;1262;140563;-78
2024/03/17 00:11:59;;;;;;;4.80;3.40;;;;;;;5.80;81.80;100008.17;217144;1260;140364;-76
2024/03/17 00:17:03;;;;;;;9.50;4.80;;;;;;;5.71;81.69;100007.67;216951;1264;139928;-76
2024/03/17 00:22:08;;;;;;;30.40;13.70;;;;;;;5.65;81.97;100008.33;216864;1260;141932;-77
2024/03/17 00:27:13;;;;;;;19.20;8.90;;;;;;;5.57;82.04;100009.87;216754;1260;140757;-76
2024/03/17 00:32:17;;;;;;;19.30;8.60;;;;;;;5.48;81.76;100009.39;217248;1264;140702;-76
2024/03/17 00:37:20;;;;;;;16.80;9.40;;;;;;;5.41;81.98;100009.39;216822;1263;140985;-77
2024/03/17 00:42:24;;;;;;;6.30;3.80;;;;;;;5.30;81.55;100008.73;217114;1260;141471;-75
2024/03/17 00:47:27;;;;;;;7.60;3.80;;;;;;;5.19;81.56;100011.77;216662;1260;141010;-77
2024/03/17 00:52:30;;;;;;;8.40;4.60;;;;;;;5.03;81.86;100016.52;217195;1260;140027;-75
2024/03/17 00:57:34;;;;;;;6.00;4.10;;;;;;;4.89;81.97;100021.66;216768;1260;139843;-76
2024/03/17 01:02:39;;;;;;;6.80;4.90;;;;;;;4.81;82.24;100017.77;217228;1261;139895;-75
2024/03/17 01:07:43;;;;;;;11.30;5.00;;;;;;;4.76;82.54;100016.88;216799;1263;141205;-76
2024/03/17 01:12:46;;;;;;;7.20;4.30;;;;;;;4.72;82.44;100016.92;219790;1261;141372;-78
2024/03/17 01:17:50;;;;;;;9.60;4.60;;;;;;;4.70;82.57;100018.03;217522;1260;140823;-74
2024/03/17 01:22:53;;;;;;;7.30;4.20;;;;;;;4.66;82.71;100017.59;216811;1259;140586;-74
2024/03/17 01:27:57;;;;;;;8.20;3.50;;;;;;;4.64;83.09;100021.02;218015;1259;141379;-76
2024/03/17 01:33:00;;;;;;;8.00;3.90;;;;;;;4.63;82.91;100017.84;217399;1262;141311;-75
2024/03/17 01:38:04;;;;;;;11.40;4.90;;;;;;;4.60;83.20;100021.03;216887;1260;140595;-73
2024/03/17 01:43:11;;;;;;;17.10;6.30;;;;;;;4.59;83.27;100014.00;217013;1259;140786;-75
2024/03/17 01:48:19;;;;;;;12.90;6.70;;;;;;;4.59;83.51;100014.64;217143;1262;140888;-74
2024/03/17 01:53:25;;;;;;;17.00;7.50;;;;;;;4.57;83.46;100017.16;216899;1260;140394;-76
2024/03/17 01:58:30;;;;;;;12.90;6.00;;;;;;;4.55;83.58;100024.29;217008;1259;140103;-74
2024/03/17 02:03:32;;;;;;;9.70;5.90;;;;;;;4.52;83.76;100024.58;216800;1262;140885;-74
2024/03/17 02:08:56;;;;;;;20.00;9.40;;;;;;;4.45;83.55;100025.89;218392;1259;140789;-75
2024/03/17 02:14:00;;;;;;;6.20;3.80;;;;;;;4.44;83.92;100026.00;218493;1260;141006;-77
2024/03/17 02:19:03;;;;;;;10.40;5.30;;;;;;;4.46;84.11;100033.50;217027;1260;140954;-76
2024/03/17 02:24:07;;;;;;;7.70;4.60;;;;;;;4.46;84.16;100034.23;216839;1261;143012;-76
2024/03/17 02:29:11;;;;;;;8.50;5.10;;;;;;;4.45;84.03;100036.93;217446;1258;142348;-76
2024/03/17 02:34:13;;;;;;;12.80;4.50;;;;;;;4.45;83.89;100043.80;216628;1260;140686;-72
2024/03/17 02:44:36;;;;;;;9.60;4.40;;;;;;;4.51;83.77;100046.39;217228;1259;141025;-74
2024/03/17 02:49:43;;;;;;;10.70;3.60;;;;;;;4.54;83.86;100049.42;218691;1260;156408;-75
2024/03/17 02:54:46;;;;;;;11.20;3.40;;;;;;;4.52;83.79;100048.58;216644;1262;141956;-73
2024/03/17 02:59:49;;;;;;;12.60;5.10;;;;;;;4.49;83.64;100049.69;219654;1260;141284;-73
2024/03/17 03:04:51;;;;;;;11.80;4.60;;;;;;;4.45;83.49;100047.85;218284;1261;140695;-74
2024/03/17 03:09:55;;;;;;;56.10;31.30;;;;;;;4.41;83.41;100050.95;216690;1260;234921;-71
2024/03/17 03:14:58;;;;;;;35.60;19.40;;;;;;;4.35;83.03;100054.12;216565;1259;141555;-73
2024/03/17 03:20:01;;;;;;;17.70;7.70;;;;;;;4.26;82.83;100055.81;218019;1260;141151;-74
2024/03/17 03:25:04;;;;;;;5.30;4.40;;;;;;;4.18;82.95;100051.14;216654;1263;140782;-73
2024/03/17 03:30:08;;;;;;;19.70;7.60;;;;;;;4.15;83.22;100052.20;216940;1263;140895;-73
2024/03/17 03:35:12;;;;;;;8.60;5.20;;;;;;;4.12;83.34;100049.60;216608;1259;140894;-73
2024/03/17 03:40:16;;;;;;;8.70;3.40;;;;;;;4.12;83.42;100053.98;216840;1259;141126;-74
2024/03/17 03:45:20;;;;;;;8.60;4.50;;;;;;;4.10;83.30;100053.31;216888;1259;140356;-74
2024/03/17 03:50:23;;;;;;;8.70;4.40;;;;;;;4.01;83.22;100056.90;217174;1259;140469;-73
2024/03/17 03:55:26;;;;;;;6.90;3.50;;;;;;;3.91;82.97;100059.90;216969;1259;231688;-73
2024/03/17 04:00:31;;;;;;;14.40;4.30;;;;;;;3.80;82.77;100062.86;217354;1263;140615;-73
2024/03/17 04:05:34;;;;;;;8.80;4.20;;;;;;;3.69;82.63;100065.39;217040;1259;141015;-76
2024/03/17 04:10:37;;;;;;;8.00;3.60;;;;;;;3.57;82.71;100070.77;216598;1259;142183;-75
2024/03/17 04:15:41;;;;;;;7.60;5.40;;;;;;;3.52;82.69;100074.90;216797;1259;140298;-75
2024/03/17 04:20:45;;;;;;;8.80;4.60;;;;;;;3.48;82.72;100072.04;217828;1260;140011;-75
2024/03/17 04:25:49;;;;;;;10.20;3.50;;;;;;;3.48;82.68;100074.02;216874;1264;141087;-75
2024/03/17 04:30:52;;;;;;;7.50;3.90;;;;;;;3.48;82.58;100080.19;218263;1261;141102;-76
2024/03/17 04:35:55;;;;;;;15.80;4.70;;;;;;;3.46;82.54;100083.54;216674;1261;140696;-76
2024/03/17 04:41:04;;;;;;;9.40;4.30;;;;;;;3.47;82.91;100082.70;216625;1264;140538;-75
2024/03/17 04:46:11;;;;;;;14.80;3.90;;;;;;;3.51;82.86;100085.63;218691;1261;140598;-75
2024/03/17 04:51:16;;;;;;;8.70;5.40;;;;;;;3.51;82.77;100087.58;216994;1260;140744;-74
2024/03/17 04:56:19;;;;;;;8.50;4.80;;;;;;;3.47;82.52;100092.34;216507;1260;139940;-74
2024/03/17 05:01:22;;;;;;;23.70;5.80;;;;;;;3.45;82.46;100091.24;217284;1260;140800;-73
2024/03/17 05:06:26;;;;;;;9.60;4.10;;;;;;;3.44;82.56;100095.21;217881;1261;140153;-75
2024/03/17 05:11:29;;;;;;;8.80;4.50;;;;;;;3.44;82.26;100100.84;216585;1260;142131;-73
2024/03/17 05:16:33;;;;;;;3.40;2.50;;;;;;;3.44;81.99;100101.13;216622;1261;139863;-73
2024/03/17 05:21:36;;;;;;;13.90;5.90;;;;;;;3.42;81.63;100100.40;218043;1259;140883;-73
2024/03/17 05:26:39;;;;;;;9.30;4.90;;;;;;;3.45;81.47;100103.89;216661;1259;140275;-73
2024/03/17 05:31:43;;;;;;;6.80;3.60;;;;;;;3.49;81.28;100102.38;216382;1259;753143;-73
2024/03/17 05:36:47;;;;;;;9.60;2.80;;;;;;;3.56;81.07;100097.77;217664;1263;152310;-72
2024/03/17 05:41:51;;;;;;;6.40;2.90;;;;;;;3.60;81.19;100098.79;217624;1263;140503;-73
2024/03/17 05:46:57;;;;;;;5.10;2.40;;;;;;;3.62;81.35;100097.77;216862;1259;139481;-74
2024/03/17 05:52:00;;;;;;;7.40;3.30;;;;;;;3.70;81.79;100094.38;216762;1259;140151;-76
2024/03/17 05:57:04;;;;;;;8.20;3.00;;;;;;;3.86;81.47;100091.45;216787;1263;140182;-74
2024/03/17 06:02:10;;;;;;;12.80;3.30;;;;;;;4.06;81.30;100094.29;216831;1259;140802;-74
2024/03/17 06:07:13;;;;;;;13.70;4.10;;;;;;;4.25;81.34;100098.14;216783;1259;140880;-74
2024/03/17 06:12:17;;;;;;;12.00;3.50;;;;;;;4.47;81.03;100091.95;217348;1263;140378;-74
2024/03/17 06:17:20;;;;;;;13.00;3.80;;;;;;;4.63;80.70;100097.34;217350;1264;140304;-75
2024/03/17 06:22:24;;;;;;;9.00;4.20;;;;;;;4.65;79.99;100095.38;216830;1259;141559;-75
2024/03/17 06:27:28;;;;;;;14.90;3.80;;;;;;;4.69;79.91;100100.53;217464;1262;140547;-75
2024/03/17 06:32:33;;;;;;;5.80;2.90;;;;;;;4.76;79.58;100112.85;216865;1259;140011;-75
2024/03/17 06:37:36;;;;;;;11.70;3.60;;;;;;;4.80;79.35;100120.73;217073;1259;141032;-72
2024/03/17 06:42:39;;;;;;;14.20;4.40;;;;;;;4.80;79.10;100124.79;217024;1259;142125;-73
2024/03/17 06:47:42;;;;;;;6.50;3.20;;;;;;;4.82;78.86;100123.77;218189;1262;141196;-73
2024/03/17 06:52:45;;;;;;;7.80;3.00;;;;;;;4.90;78.60;100126.63;218479;1261;140269;-74
2024/03/17 06:57:49;;;;;;;5.00;2.40;;;;;;;5.00;78.09;100130.64;218526;1259;140199;-74
2024/03/17 07:02:52;;;;;;;5.40;2.80;;;;;;;5.09;77.95;100134.99;219396;1259;140874;-75
2024/03/17 07:07:55;;;;;;;2.30;2.20;;;;;;;5.23;78.07;100137.47;217290;1263;141300;-73
2024/03/17 07:12:58;;;;;;;10.40;2.70;;;;;;;5.33;77.45;100140.16;216898;1265;233469;-73
2024/03/17 07:18:02;;;;;;;7.90;2.90;;;;;;;5.49;77.40;100137.31;217038;1263;140486;-73
2024/03/17 07:23:05;;;;;;;9.10;2.90;;;;;;;5.79;77.04;100140.52;217208;1264;140420;-73
2024/03/17 07:28:09;;;;;;;7.60;2.40;;;;;;;6.00;76.73;100146.80;216771;1259;140790;-75
2024/03/17 07:33:12;;;;;;;4.70;2.60;;;;;;;6.08;76.24;100149.14;216838;1263;141264;-76
2024/03/17 07:38:15;;;;;;;5.70;3.30;;;;;;;6.15;75.55;100148.30;216897;1259;140999;-75
2024/03/17 07:43:20;;;;;;;10.00;2.40;;;;;;;6.19;75.37;100146.48;216978;1259;141205;-76
2024/03/17 07:48:24;;;;;;;9.40;2.10;;;;;;;6.31;75.25;100146.60;216936;1259;140268;-75
2024/03/17 07:53:27;;;;;;;10.70;4.50;;;;;;;6.39;74.86;100148.84;216740;1259;142044;-74
2024/03/17 07:58:35;;;;;;;5.60;2.10;;;;;;;6.48;74.08;100145.39;216853;1259;141340;-75
2024/03/17 08:03:43;;;;;;;7.10;2.40;;;;;;;6.69;74.42;100152.78;218369;1259;140529;-75
2024/03/17 08:08:47;;;;;;;4.10;2.20;;;;;;;6.74;73.85;100161.30;217102;1264;140690;-75
2024/03/17 08:13:51;;;;;;;7.30;2.20;;;;;;;6.66;73.35;100167.11;216825;1261;140389;-75
2024/03/17 08:18:55;;;;;;;8.80;3.10;;;;;;;6.62;73.35;100168.08;217879;1263;140666;-75
2024/03/17 08:23:58;;;;;;;11.90;3.80;;;;;;;6.49;72.86;100161.73;216993;1259;140773;-75
2024/03/17 08:29:01;;;;;;;6.80;4.30;;;;;;;6.45;72.90;100164.36;217428;1260;141323;-74
2024/03/17 08:34:04;;;;;;;7.40;2.30;;;;;;;6.57;73.04;100159.41;218613;1260;140362;-75
2024/03/17 08:39:14;;;;;;;6.60;2.10;;;;;;;6.63;72.60;100154.23;218094;1262;141458;-74
2024/03/17 08:44:17;;;;;;;7.70;2.00;;;;;;;6.63;72.34;100157.01;219203;1259;141738;-73
2024/03/17 08:49:20;;;;;;;93.10;9.20;;;;;;;6.56;72.26;100161.70;217055;1264;143685;-74
2024/03/17 08:54:23;;;;;;;6.40;2.30;;;;;;;6.41;71.60;100168.77;217936;1259;141675;-74
2024/03/17 08:59:26;;;;;;;6.90;2.80;;;;;;;6.24;71.83;100162.16;216789;1264;140177;-74
2024/03/17 09:04:31;;;;;;;6.80;3.20;;;;;;;6.14;71.80;100158.96;216636;1261;140318;-74
2024/03/17 09:09:34;;;;;;;10.50;3.00;;;;;;;6.09;72.46;100160.55;216698;1259;140034;-73
2024/03/17 09:14:37;;;;;;;5.90;2.00;;;;;;;6.03;71.70;100160.42;216781;1259;142433;-75
2024/03/17 09:19:39;;;;;;;4.60;1.90;;;;;;;5.89;71.69;100155.54;216521;1260;139886;-75
2024/03/17 09:24:42;;;;;;;6.10;3.50;;;;;;;5.82;72.02;100154.80;216921;1262;140194;-72
2024/03/17 09:29:46;;;;;;;9.00;3.30;;;;;;;5.77;71.83;100154.70;217292;1260;140084;-73
2024/03/17 09:34:49;;;;;;;7.60;2.40;;;;;;;5.75;71.93;100157.13;216879;1265;140427;-73
2024/03/17 09:39:51;;;;;;;4.60;2.80;;;;;;;5.71;72.31;100156.49;216761;1260;140473;-73
2024/03/17 09:44:56;;;;;;;5.70;2.80;;;;;;;5.64;72.66;100166.96;216924;1259;142011;-73
2024/03/17 09:50:00;;;;;;;8.70;3.80;;;;;;;5.57;72.19;100175.52;217130;1264;139768;-77
2024/03/17 09:55:09;;;;;;;11.40;5.40;;;;;;;5.55;72.42;100177.02;216944;1259;141283;-73
2024/03/17 10:00:14;;;;;;;7.40;3.60;;;;;;;5.56;72.75;100184.71;217015;1264;140189;-73
2024/03/17 10:05:22;;;;;;;14.10;6.80;;;;;;;5.66;73.17;100187.45;217104;1259;141296;-76
2024/03/17 10:10:26;;;;;;;6.90;3.60;;;;;;;5.82;72.95;100192.24;217186;1261;140397;-73
2024/03/17 10:15:29;;;;;;;10.10;3.30;;;;;;;5.88;72.75;100190.23;217331;1263;141815;-74
2024/03/17 10:20:32;;;;;;;6.70;2.70;;;;;;;5.88;72.79;100186.80;217056;1264;139814;-72
2024/03/17 10:25:39;;;;;;;8.30;3.00;;;;;;;6.06;72.89;100182.23;218132;1261;140208;-72
2024/03/17 10:30:58;;;;;;;6.50;3.10;;;;;;;6.41;73.02;100177.89;217078;1264;139791;-71
2024/03/17 10:36:02;;;;;;;6.60;2.60;;;;;;;6.80;72.52;100173.80;217219;1259;140813;-73
2024/03/17 10:41:06;;;;;;;6.60;2.00;;;;;;;6.92;72.56;100175.71;217233;1265;142634;-73
2024/03/17 10:46:14;;;;;;;4.40;2.80;;;;;;;7.06;72.08;100178.79;216927;1263;140874;-76
2024/03/17 10:51:18;;;;;;;8.30;4.20;;;;;;;6.98;71.54;100176.25;218014;1263;139916;-73
2024/03/17 10:56:20;;;;;;;10.40;4.20;;;;;;;6.84;71.15;100177.60;217054;1260;140970;-73
2024/03/17 11:01:24;;;;;;;5.00;3.10;;;;;;;6.69;71.08;100186.11;217128;1259;140485;-70
2024/03/17 11:06:29;;;;;;;6.90;3.60;;;;;;;6.47;70.93;100192.55;217246;1259;139623;-76
2024/03/17 11:11:37;;;;;;;8.60;3.30;;;;;;;6.23;71.11;100192.82;217294;1262;140128;-71
2024/03/17 11:16:40;;;;;;;3.80;1.90;;;;;;;5.99;71.34;100193.34;217378;1263;139900;-72
2024/03/17 11:21:43;;;;;;;2.40;1.70;;;;;;;5.81;71.10;100190.86;217132;1264;140120;-72
2024/03/17 11:26:46;;;;;;;3.30;2.30;;;;;;;5.70;71.72;100191.15;217287;1263;139866;-72
2024/03/17 11:31:55;;;;;;;4.40;2.30;;;;;;;5.62;71.26;100194.26;217364;1262;140324;-73
2024/03/17 11:36:59;;;;;;;4.10;2.40;;;;;;;5.58;71.36;100196.77;217367;1263;139987;-73
2024/03/17 11:42:10;;;;;;;3.30;2.60;;;;;;;5.57;71.12;100196.77;218224;1263;140556;-73
2024/03/17 11:47:14;;;;;;;3.80;3.50;;;;;;;5.78;71.46;100192.71;216997;1263;141270;-74
2024/03/17 11:52:18;;;;;;;9.70;4.10;;;;;;;6.11;71.32;100183.35;217579;1263;139968;-75
2024/03/17 11:57:26;;;;;;;3.40;2.40;;;;;;;6.36;70.92;100184.72;217331;1265;140001;-75
2024/03/17 12:02:32;;;;;;;3.70;2.50;;;;;;;6.33;70.42;100186.02;217666;1263;139839;-74
2024/03/17 12:07:42;;;;;;;4.00;2.20;;;;;;;6.16;69.75;100188.22;217066;1263;140467;-76
2024/03/17 12:12:48;;;;;;;4.80;2.00;;;;;;;6.01;69.94;100192.02;217473;1260;139731;-73
2024/03/17 12:17:54;;;;;;;5.10;3.30;;;;;;;6.03;69.71;100186.89;217152;1262;140445;-73
2024/03/17 12:22:57;;;;;;;5.20;3.10;;;;;;;6.26;69.82;100186.08;217568;1261;140316;-73
2024/03/17 12:28:00;;;;;;;2.40;2.20;;;;;;;6.40;69.67;100185.67;217329;1264;140661;-72
2024/03/17 12:33:04;;;;;;;5.70;2.80;;;;;;;6.40;68.97;100184.38;216939;1264;141496;-73
2024/03/17 12:38:22;;;;;;;5.40;2.10;;;;;;;6.44;68.76;100182.70;217195;1263;139561;-72
2024/03/17 12:43:27;;;;;;;3.80;2.70;;;;;;;6.45;68.62;100178.30;217424;1261;140080;-72
2024/03/17 12:48:30;;;;;;;3.50;2.00;;;;;;;6.50;67.94;100171.65;217329;1263;141091;-72
2024/03/17 12:53:33;;;;;;;2.50;1.90;;;;;;;6.53;67.93;100175.37;217629;1265;139972;-72
2024/03/17 13:04:09;;;;;;;2.70;1.50;;;;;;;6.12;67.31;100174.60;217278;1261;140329;-72
2024/03/17 13:09:17;;;;;;;4.10;2.30;;;;;;;5.89;67.36;100178.27;217438;1263;140143;-73
2024/03/17 13:14:20;;;;;;;2.70;1.60;;;;;;;5.72;67.66;100187.88;217908;1263;140059;-72
2024/03/17 13:19:24;;;;;;;2.80;1.80;;;;;;;5.69;67.64;100190.45;217174;1263;140930;-72
2024/03/17 13:24:30;;;;;;;7.80;6.70;;;;;;;5.65;67.54;100188.50;217403;1265;139897;-78
2024/03/17 13:29:38;;;;;;;5.30;3.30;;;;;;;5.68;67.70;100187.02;217916;1263;140704;-77
2024/03/17 13:34:44;;;;;;;;;;;;;;;5.85;67.95;100181.43;217810;1263;141073;-77
2024/03/17 13:39:51;;;;;;;3.90;2.30;;;;;;;5.92;67.84;100183.67;218228;1264;126872;-80
2024/03/17 13:44:56;;;;;;;6.60;2.60;;;;;;;5.90;67.90;100185.39;217539;1263;140116;-74
2024/03/17 13:50:10;;;;;;;2.30;1.80;;;;;;;5.88;67.74;100187.66;218038;1263;140941;-77
2024/03/17 13:55:22;;;;;;;9.00;5.40;;;;;;;5.86;67.54;100188.69;217535;1266;139978;-74
2024/03/17 14:00:27;;;;;;;2.70;1.50;;;;;;;5.82;67.29;100188.83;217753;1261;140803;-74
2024/03/17 14:05:36;;;;;;;1.90;1.70;;;;;;;5.72;67.20;100190.27;217380;1262;140982;-77
2024/03/17 14:10:44;;;;;;;2.70;1.90;;;;;;;5.59;67.21;100187.95;217800;1260;139595;-76
2024/03/17 14:15:49;;;;;;;2.30;1.80;;;;;;;5.46;66.61;100187.90;217420;1261;140133;-74
2024/03/17 14:21:00;;;;;;;2.30;1.30;;;;;;;5.33;66.68;100188.35;217381;1264;139904;-73
2024/03/17 14:26:06;;;;;;;1.90;1.70;;;;;;;5.17;66.85;100186.33;218876;1261;140034;-75
2024/03/17 14:31:10;;;;;;;2.90;1.30;;;;;;;5.06;66.71;100183.66;217589;1261;141432;-74
2024/03/17 14:36:13;;;;;;;2.90;1.70;;;;;;;4.98;66.97;100189.34;217332;1264;141937;-72
2024/03/17 14:41:15;;;;;;;2.70;1.20;;;;;;;4.93;67.33;100187.89;217262;1261;140701;-74
2024/03/17 14:46:22;;;;;;;1.70;1.60;;;;;;;4.82;67.21;100192.60;217400;1263;139877;-75
2024/03/17 14:51:26;;;;;;;4.00;3.10;;;;;;;4.74;67.23;100193.39;217780;1260;139907;-76
2024/03/17 14:56:32;;;;;;;3.20;2.20;;;;;;;4.68;67.37;100196.07;217328;1263;142547;-75
2024/03/17 15:01:47;;;;;;;2.90;1.40;;;;;;;4.64;67.83;100200.05;217486;1260;140213;-77
2024/03/17 15:06:54;;;;;;;;;;;;;;;4.67;68.00;100203.42;217788;1264;235733;-75
2024/03/17 15:12:03;;;;;;;5.10;1.80;;;;;;;4.66;68.38;100201.29;217835;1263;126301;-75
2024/03/17 15:17:12;;;;;;;3.70;1.90;;;;;;;4.60;68.29;100198.75;217488;1260;140234;-76
2024/03/17 15:22:18;;;;;;;3.30;1.70;;;;;;;4.47;68.93;100205.73;217586;1260;140696;-74
2024/03/17 15:27:21;;;;;;;2.00;1.90;;;;;;;4.34;69.38;100215.10;217478;1263;140345;-77
2024/03/17 15:32:40;;;;;;;1.30;1.10;;;;;;;4.18;69.34;100219.31;217497;1260;140130;-71
2024/03/17 15:38:09;;;;;;;3.70;1.70;;;;;;;4.02;69.85;100226.54;217361;1260;140156;-74
2024/03/17 15:43:18;;;;;;;3.50;2.80;;;;;;;3.91;70.36;100235.59;217334;1260;140557;-74
2024/03/17 15:48:28;;;;;;;5.70;2.50;;;;;;;3.81;70.81;100237.59;217667;1260;139757;-73
2024/03/17 15:53:35;;;;;;;5.20;2.40;;;;;;;3.75;71.12;100238.16;217623;1260;141172;-73
2024/03/17 15:58:41;;;;;;;5.30;2.50;;;;;;;3.67;71.40;100236.91;217132;1259;140086;-72
2024/03/17 16:03:46;;;;;;;4.20;2.70;;;;;;;3.61;71.75;100242.91;217139;1263;140276;-73
2024/03/17 16:08:51;;;;;;;5.70;2.20;;;;;;;3.58;71.97;100241.38;217509;1260;140583;-72
2024/03/17 16:14:04;;;;;;;7.00;4.40;;;;;;;3.52;71.82;100247.33;217973;1260;140253;-73
2024/03/17 16:19:07;;;;;;;4.50;3.40;;;;;;;3.48;71.90;100252.45;217681;1261;140810;-72
2024/03/17 16:24:13;;;;;;;2.70;1.90;;;;;;;3.41;71.79;100251.21;216955;1260;140875;-73
2024/03/17 16:29:16;;;;;;;1.70;1.00;;;;;;;3.34;71.71;100259.45;217621;1263;140080;-78
2024/03/17 16:34:22;;;;;;;2.30;1.50;;;;;;;3.31;71.67;100261.48;217097;1263;142599;-75
2024/03/17 16:39:25;;;;;;;5.60;4.00;;;;;;;3.29;71.71;100266.98;217262;1260;140565;-73
2024/03/17 16:44:43;;;;;;;2.00;1.40;;;;;;;3.26;71.63;100262.55;217661;1260;140573;-73
2024/03/17 16:49:47;;;;;;;6.20;3.70;;;;;;;3.22;71.69;100266.08;217850;1260;139751;-71
2024/03/17 16:54:49;;;;;;;1.70;1.30;;;;;;;3.18;71.28;100268.40;217443;1261;140073;-69
2024/03/17 16:59:54;;;;;;;1.60;1.50;;;;;;;3.11;70.97;100273.51;217252;1261;141857;-70
2024/03/17 17:04:57;;;;;;;1.50;1.20;;;;;;;3.03;70.41;100272.33;217210;1260;140039;-71
2024/03/17 17:10:00;;;;;;;2.30;1.50;;;;;;;2.98;70.21;100272.30;216828;1261;140544;-73
2024/03/17 17:15:05;;;;;;;3.50;2.80;;;;;;;2.93;70.08;100274.84;217180;1260;140403;-71
2024/03/17 17:20:11;;;;;;;1.10;1.10;;;;;;;2.87;69.90;100284.06;217102;1260;139875;-72
2024/03/17 17:25:15;;;;;;;1.80;1.00;;;;;;;2.84;69.95;100282.96;217554;1263;140767;-73
2024/03/17 17:30:18;;;;;;;2.30;1.40;;;;;;;2.84;70.02;100283.36;217330;1261;377964;-71
2024/03/17 17:35:21;;;;;;;4.60;3.40;;;;;;;2.82;69.90;100285.50;217644;1261;139844;-70
2024/03/17 17:40:25;;;;;;;2.60;2.10;;;;;;;2.84;69.90;100287.40;217190;1261;139771;-70
2024/03/17 17:45:28;;;;;;;2.80;1.40;;;;;;;2.85;69.87;100288.71;217273;1259;141469;-69
2024/03/17 17:50:31;;;;;;;4.40;2.00;;;;;;;2.84;69.78;100291.17;217176;1260;139823;-69
2024/03/17 17:55:34;;;;;;;3.80;1.70;;;;;;;2.80;69.68;100291.36;217332;1264;139966;-71
2024/03/17 18:00:37;;;;;;;3.50;3.10;;;;;;;2.77;69.42;100292.77;217234;1263;140290;-70
2024/03/17 18:05:40;;;;;;;2.50;1.70;;;;;;;2.73;69.39;100297.40;217199;1260;140511;-71
2024/03/17 18:10:43;;;;;;;2.90;2.40;;;;;;;2.72;69.22;100301.94;217618;1260;141439;-73
2024/03/17 18:15:55;;;;;;;1.40;1.30;;;;;;;2.70;69.23;100297.58;217053;1263;140541;-70
2024/03/17 18:21:03;;;;;;;3.10;1.20;;;;;;;2.64;69.61;100296.57;217284;1261;160506;-71
2024/03/17 18:26:08;;;;;;;;;;;;;;;2.58;70.14;100295.40;217424;1263;139937;-71
2024/03/17 18:31:12;;;;;;;1.60;1.30;;;;;;;2.50;70.56;100292.95;218135;1259;127374;-71
2024/03/17 18:36:15;;;;;;;5.30;2.50;;;;;;;2.46;71.04;100285.33;217699;1259;140906;-73
2024/03/17 18:41:18;;;;;;;7.10;2.40;;;;;;;2.44;71.22;100289.75;217889;1259;142675;-72
2024/03/17 18:46:23;;;;;;;1.60;1.50;;;;;;;2.44;71.54;100296.06;217272;1259;142291;-73
2024/03/17 18:51:26;;;;;;;2.70;1.30;;;;;;;2.39;71.54;100306.94;217236;1260;141300;-71
2024/03/17 18:56:29;;;;;;;3.60;1.90;;;;;;;2.33;71.92;100308.98;217127;1259;141157;-71
2024/03/17 19:01:33;;;;;;;2.30;2.00;;;;;;;2.21;71.92;100309.77;217319;1260;139664;-71
2024/03/17 19:06:37;;;;;;;4.70;1.70;;;;;;;2.14;72.15;100310.75;217296;1261;140138;-74
2024/03/17 19:11:39;;;;;;;3.80;2.20;;;;;;;2.08;72.25;100314.58;217195;1260;140330;-72
2024/03/17 19:16:42;;;;;;;4.30;2.80;;;;;;;2.02;72.40;100311.48;217055;1260;140342;-72
2024/03/17 19:21:48;;;;;;;7.30;3.80;;;;;;;2.01;72.48;100311.05;217513;1259;140212;-73
2024/03/17 19:26:52;;;;;;;7.20;4.70;;;;;;;1.98;72.50;100311.75;217054;1259;141072;-72
2024/03/17 19:31:54;;;;;;;16.20;6.50;;;;;;;1.94;72.32;100308.55;217377;1263;140005;-75
2024/03/17 19:36:57;;;;;;;2.60;2.00;;;;;;;1.91;72.40;100310.46;217219;1259;140799;-74
2024/03/17 19:42:03;;;;;;;4.90;3.00;;;;;;;1.88;72.55;100307.41;216837;1260;141095;-74
2024/03/17 19:47:06;;;;;;;2.50;1.60;;;;;;;1.84;72.40;100304.77;216859;1260;139734;-71
2024/03/17 19:52:12;;;;;;;3.30;1.60;;;;;;;1.83;72.50;100302.04;217111;1259;140193;-72
2024/03/17 19:57:15;;;;;;;3.30;1.90;;;;;;;1.79;72.46;100305.81;217033;1263;139779;-72
2024/03/17 20:02:18;;;;;;;1.80;1.60;;;;;;;1.78;72.42;100305.91;216913;1260;140651;-72
2024/03/17 20:07:21;;;;;;;2.20;1.40;;;;;;;1.75;72.36;100300.48;217791;1263;139725;-70
2024/03/17 20:12:25;;;;;;;1.20;1.00;;;;;;;1.71;72.03;100302.95;217214;1259;140046;-71
2024/03/17 20:17:28;;;;;;;1.00;1.00;;;;;;;1.68;71.87;100303.64;217747;1260;141716;-72
2024/03/17 20:22:32;;;;;;;3.80;1.70;;;;;;;1.63;71.51;100294.16;217135;1261;139752;-73
2024/03/17 20:27:37;;;;;;;2.30;2.10;;;;;;;1.59;71.41;100289.70;217779;1260;141008;-73
2024/03/17 20:32:40;;;;;;;1.40;1.30;;;;;;;1.57;71.14;100291.48;217230;1259;140259;-73
2024/03/17 20:37:44;;;;;;;3.60;2.10;;;;;;;1.56;71.34;100285.45;217783;1263;140088;-71
2024/03/17 20:42:52;;;;;;;2.10;1.10;;;;;;;1.56;71.06;100286.52;217888;1259;139972;-71
2024/03/17 20:47:56;;;;;;;5.10;1.80;;;;;;;1.54;71.23;100281.67;217204;1260;139492;-70
2024/03/17 20:52:58;;;;;;;4.40;1.70;;;;;;;1.54;71.11;100280.42;217403;1259;141162;-70
2024/03/17 20:58:02;;;;;;;6.50;3.10;;;;;;;1.52;71.61;100277.09;217626;1259;140216;-70
2024/03/17 21:03:08;;;;;;;3.30;2.00;;;;;;;1.51;71.35;100274.30;217170;1259;139601;-72
2024/03/17 21:08:16;;;;;;;3.70;2.00;;;;;;;1.49;71.33;100272.10;216914;1262;140487;-77
2024/03/17 21:13:19;;;;;;;5.00;4.00;;;;;;;1.46;71.20;100269.89;217565;1258;140306;-75
2024/03/17 21:18:23;;;;;;;4.40;3.90;;;;;;;1.44;71.26;100266.11;217414;1263;142114;-71
2024/03/17 21:23:26;;;;;;;5.00;2.80;;;;;;;1.44;71.23;100265.10;217336;1259;140307;-72
2024/03/17 21:28:30;;;;;;;4.10;1.90;;;;;;;1.42;71.32;100265.48;217120;1259;140964;-73
2024/03/17 21:33:35;;;;;;;4.20;2.10;;;;;;;1.40;71.29;100268.14;216986;1260;140472;-71
2024/03/17 21:38:38;;;;;;;4.30;1.90;;;;;;;1.36;71.46;100267.67;217064;1264;140289;-72
2024/03/17 21:43:41;;;;;;;5.80;2.70;;;;;;;1.32;71.38;100266.13;217047;1263;139695;-71
2024/03/17 21:48:44;;;;;;;5.20;1.60;;;;;;;1.30;71.81;100262.80;217314;1259;140167;-72
2024/03/17 21:53:51;;;;;;;4.20;1.40;;;;;;;1.26;71.42;100255.23;217315;1263;140306;-71
2024/03/17 21:58:53;;;;;;;1.30;1.20;;;;;;;1.21;71.22;100251.38;217152;1262;140598;-71
2024/03/17 22:03:57;;;;;;;2.80;1.10;;;;;;;1.18;71.21;100248.77;217127;1263;141823;-72
2024/03/17 22:09:01;;;;;;;1.80;1.40;;;;;;;1.12;71.38;100248.20;217789;1260;140098;-72
2024/03/17 22:14:04;;;;;;;1.30;1.20;;;;;;;1.10;71.60;100246.10;217317;1259;141560;-72
2024/03/17 22:19:07;;;;;;;2.00;1.20;;;;;;;1.07;71.80;100247.34;217421;1259;140004;-72
2024/03/17 22:24:10;;;;;;;7.90;2.80;;;;;;;1.05;72.12;100252.62;217646;1259;140272;-71
2024/03/17 22:29:15;;;;;;;2.50;1.10;;;;;;;0.99;71.86;100249.80;217267;1261;141536;-69
2024/03/17 22:34:19;;;;;;;2.00;1.20;;;;;;;0.92;71.64;100243.26;217123;1263;140423;-70
2024/03/17 22:39:22;;;;;;;3.50;1.50;;;;;;;0.88;71.87;100237.73;217201;1264;139899;-71
2024/03/17 22:44:25;;;;;;;3.10;1.70;;;;;;;0.87;72.27;100228.66;216891;1261;139854;-72
2024/03/17 22:49:30;;;;;;;2.10;1.70;;;;;;;0.84;72.34;100225.66;217705;1259;139742;-70
2024/03/17 22:54:34;;;;;;;5.10;2.40;;;;;;;0.77;72.10;100226.98;217382;1259;141254;-70
2024/03/17 22:59:38;;;;;;;5.30;2.50;;;;;;;0.72;72.31;100227.16;217963;1262;142768;-73
2024/03/17 23:04:41;;;;;;;1.60;0.90;;;;;;;0.68;72.33;100224.62;217064;1263;140390;-70
2024/03/17 23:09:44;;;;;;;4.80;1.30;;;;;;;0.65;72.10;100224.41;217104;1263;140607;-73
2024/03/17 23:14:50;;;;;;;1.80;1.30;;;;;;;0.62;72.25;100228.38;216933;1261;140791;-72
2024/03/17 23:19:59;;;;;;;1.40;1.20;;;;;;;0.61;72.36;100227.43;217894;1263;140234;-71
2024/03/17 23:25:03;;;;;;;2.30;2.20;;;;;;;0.59;72.58;100227.63;217535;1259;140436;-70
2024/03/17 23:30:11;;;;;;;2.00;1.80;;;;;;;0.61;72.38;100230.27;217123;1259;140101;-70